createdAt,value
2023-05-10T00:00:23.349Z,10.60
2023-05-10T00:01:23.367Z,11.00
2023-05-10T00:02:23.410Z,10.40
2023-05-10T00:03:23.519Z,11.10
2023-05-10T00:04:23.397Z,10.10
2023-05-10T00:05:23.392Z,9.60
2023-05-10T00:06:23.290Z,9.90
2023-05-10T00:07:23.306Z,9.50
2023-05-10T00:08:23.255Z,10.00
2023-05-10T00:09:23.286Z,9.00
2023-05-10T00:10:23.253Z,9.60
2023-05-10T00:11:23.365Z,9.20
2023-05-10T00:12:23.223Z,9.20
2023-05-10T00:13:23.293Z,9.50
2023-05-10T00:14:23.220Z,7.90
2023-05-10T00:15:23.225Z,9.30
2023-05-10T00:16:23.225Z,9.60
2023-05-10T00:17:23.210Z,8.40
2023-05-10T00:18:23.165Z,8.50
2023-05-10T00:19:23.217Z,9.70
2023-05-10T00:20:23.163Z,9.20
2023-05-10T00:21:23.183Z,8.60
2023-05-10T00:22:23.139Z,6.60
2023-05-10T00:23:23.228Z,7.40
2023-05-10T00:24:23.182Z,7.20
2023-05-10T00:25:23.162Z,7.10
2023-05-10T00:26:23.146Z,7.50
2023-05-10T00:27:23.238Z,8.50
2023-05-10T00:28:23.091Z,9.70
2023-05-10T00:29:23.097Z,10.20
2023-05-10T00:30:23.109Z,10.30
2023-05-10T00:31:23.124Z,10.20
2023-05-10T00:32:23.092Z,9.70
2023-05-10T00:33:23.062Z,9.30
2023-05-10T00:34:23.041Z,8.70
2023-05-10T00:35:23.049Z,9.00
2023-05-10T00:36:23.032Z,9.30
2023-05-10T00:37:23.035Z,8.30
2023-05-10T00:38:23.037Z,8.40
2023-05-10T00:39:23.009Z,8.30
2023-05-10T00:40:23.017Z,9.10
2023-05-10T00:41:22.988Z,8.50
2023-05-10T00:42:22.977Z,8.20
2023-05-10T00:43:22.971Z,8.80
2023-05-10T00:44:22.962Z,9.00
2023-05-10T00:45:22.950Z,9.00
2023-05-10T00:46:22.961Z,9.20
2023-05-10T00:47:22.979Z,9.80
2023-05-10T00:48:22.931Z,10.20
2023-05-10T00:49:22.931Z,9.50
2023-05-10T00:50:22.915Z,9.40
2023-05-10T00:51:22.916Z,9.20
2023-05-10T00:52:22.877Z,9.50
2023-05-10T00:53:22.897Z,10.10
2023-05-10T00:54:22.876Z,9.90
2023-05-10T00:55:22.871Z,9.50
2023-05-10T00:56:22.873Z,10.10
2023-05-10T00:57:22.849Z,10.70
2023-05-10T00:58:22.831Z,10.00
2023-05-10T00:59:22.834Z,10.30
2023-05-10T01:00:22.840Z,9.60
2023-05-10T01:01:22.864Z,10.60
2023-05-10T01:02:22.903Z,9.90
2023-05-10T01:03:22.878Z,10.20
2023-05-10T01:04:22.807Z,10.70
2023-05-10T01:05:22.921Z,11.20
2023-05-10T01:06:22.777Z,11.80
2023-05-10T01:07:22.777Z,11.40
2023-05-10T01:12:56.959Z,12.50
2023-05-10T01:13:42.399Z,13.00
2023-05-10T01:14:42.393Z,12.50
2023-05-10T01:15:42.425Z,14.40
2023-05-10T01:16:42.363Z,14.40
2023-05-10T01:17:42.398Z,14.10
2023-05-10T01:18:42.360Z,12.30
2023-05-10T01:19:42.387Z,13.00
2023-05-10T01:20:42.330Z,13.70
2023-05-10T01:21:42.365Z,14.50
2023-05-10T01:22:42.313Z,13.90
2023-05-10T01:23:42.324Z,14.60
2023-05-10T01:24:42.307Z,14.50
2023-05-10T01:25:42.325Z,14.80
2023-05-10T01:26:42.292Z,13.40
2023-05-10T01:27:42.303Z,13.40
2023-05-10T01:28:42.275Z,14.00
2023-05-10T01:29:42.283Z,13.50
2023-05-10T01:30:42.264Z,11.30
2023-05-10T01:31:42.354Z,11.40
2023-05-10T01:32:42.303Z,12.40
2023-05-10T01:33:42.257Z,12.30
2023-05-10T01:34:42.222Z,12.30
2023-05-10T01:35:42.217Z,11.20
2023-05-10T01:36:42.197Z,11.60
2023-05-10T01:37:42.214Z,12.10
2023-05-10T01:38:42.207Z,10.40
2023-05-10T01:39:42.188Z,9.80
2023-05-10T01:40:42.176Z,10.10
2023-05-10T01:41:42.163Z,10.50
2023-05-10T01:42:42.476Z,10.40
2023-05-10T01:43:42.155Z,11.30
2023-05-10T01:44:42.128Z,11.80
2023-05-10T01:45:42.127Z,11.40
2023-05-10T01:46:42.148Z,10.50
2023-05-10T01:47:42.164Z,11.50
2023-05-10T01:48:42.118Z,10.90
2023-05-10T01:49:42.107Z,10.60
2023-05-10T01:50:42.062Z,10.70
2023-05-10T01:51:42.091Z,9.90
2023-05-10T01:52:42.061Z,10.00
2023-05-10T01:53:42.068Z,10.20
2023-05-10T01:54:42.068Z,10.70
2023-05-10T01:55:42.056Z,10.70
2023-05-10T01:56:42.021Z,10.50
2023-05-10T01:57:42.029Z,10.30
2023-05-10T01:58:42.021Z,10.80
2023-05-10T01:59:42.065Z,10.70
2023-05-10T02:00:42.035Z,11.00
2023-05-10T02:01:42.015Z,11.30
2023-05-10T02:02:42.022Z,10.70
2023-05-10T02:03:41.995Z,10.60
2023-05-10T02:04:41.946Z,10.50
2023-05-10T02:05:41.984Z,10.20
2023-05-10T02:06:41.938Z,10.80
2023-05-10T02:07:41.959Z,9.20
2023-05-10T02:08:41.927Z,9.90
2023-05-10T02:09:41.938Z,9.80
2023-05-10T02:10:41.905Z,9.50
2023-05-10T02:11:41.938Z,9.90
2023-05-10T02:12:41.914Z,10.50
2023-05-10T02:13:41.897Z,10.90
2023-05-10T02:14:41.859Z,11.20
2023-05-10T02:15:41.865Z,11.30
2023-05-10T02:16:41.979Z,10.80
2023-05-10T02:17:41.877Z,11.10
2023-05-10T02:18:41.820Z,10.80
2023-05-10T02:19:41.845Z,12.30
2023-05-10T02:20:41.832Z,11.40
2023-05-10T02:21:41.832Z,11.00
2023-05-10T02:22:41.812Z,11.80
2023-05-10T02:23:41.816Z,11.70
2023-05-10T02:24:41.785Z,12.20
2023-05-10T02:25:41.778Z,12.30
2023-05-10T02:26:41.777Z,12.20
2023-05-10T02:27:41.775Z,13.30
2023-05-10T02:28:41.755Z,14.00
2023-05-10T02:29:41.767Z,13.80
2023-05-10T02:30:41.723Z,14.40
2023-05-10T02:31:41.756Z,14.20
2023-05-10T02:32:41.803Z,14.30
2023-05-10T02:33:41.721Z,14.30
2023-05-10T02:34:41.700Z,14.30
2023-05-10T02:35:41.701Z,14.50
2023-05-10T02:36:41.681Z,15.60
2023-05-10T02:37:41.702Z,15.10
2023-05-10T02:38:41.669Z,15.50
2023-05-10T02:39:41.658Z,15.70
2023-05-10T02:40:41.633Z,7.00
2023-05-10T02:41:41.638Z,8.70
2023-05-10T02:42:41.635Z,6.10
2023-05-10T02:43:41.625Z,6.40
2023-05-10T02:44:41.603Z,5.80
2023-05-10T02:45:41.717Z,5.60
2023-05-10T02:46:41.594Z,6.20
2023-05-10T02:47:41.656Z,5.60
2023-05-10T02:48:41.579Z,4.20
2023-05-10T02:49:41.601Z,4.20
2023-05-10T02:50:41.575Z,4.60
2023-05-10T02:51:41.548Z,5.20
2023-05-10T02:52:41.553Z,6.20
2023-05-10T02:53:41.544Z,5.30
2023-05-10T02:54:41.519Z,5.70
2023-05-10T02:55:41.527Z,6.30
2023-05-10T02:56:41.497Z,4.50
2023-05-10T02:57:41.504Z,4.10
2023-05-10T02:58:41.506Z,3.50
2023-05-10T02:59:41.482Z,2.90
2023-05-10T03:00:41.457Z,2.90
2023-05-10T03:01:41.506Z,3.00
2023-05-10T03:02:41.506Z,2.70
2023-05-10T03:03:41.475Z,2.70
2023-05-10T03:04:41.454Z,2.70
2023-05-10T03:05:41.448Z,2.60
2023-05-10T03:06:41.417Z,2.90
2023-05-10T03:07:41.422Z,2.90
2023-05-10T03:08:41.428Z,3.00
2023-05-10T03:09:41.415Z,3.50
2023-05-10T03:10:41.366Z,3.40
2023-05-10T03:11:41.394Z,3.00
2023-05-10T03:12:41.446Z,3.40
2023-05-10T03:13:41.384Z,3.30
2023-05-10T03:14:41.379Z,3.40
2023-05-10T03:15:41.388Z,3.50
2023-05-10T03:16:44.090Z,3.60
2023-05-10T03:17:41.382Z,3.80
2023-05-10T03:18:41.311Z,3.30
2023-05-10T03:19:41.342Z,3.60
2023-05-10T03:20:41.293Z,3.30
2023-05-10T03:21:41.305Z,3.70
2023-05-10T03:22:41.317Z,4.10
2023-05-10T03:23:41.294Z,3.60
2023-05-10T03:24:41.290Z,3.80
2023-05-10T03:25:41.287Z,3.70
2023-05-10T03:26:41.245Z,4.10
2023-05-10T03:27:41.253Z,4.00
2023-05-10T03:28:41.226Z,4.00
2023-05-10T03:29:41.225Z,4.10
2023-05-10T03:30:41.250Z,3.90
2023-05-10T03:31:41.278Z,2.80
2023-05-10T03:32:41.230Z,3.30
2023-05-10T03:33:41.199Z,3.80
2023-05-10T03:34:41.175Z,3.70
2023-05-10T03:35:41.181Z,3.90
2023-05-10T03:36:41.182Z,3.80
2023-05-10T03:37:41.179Z,4.20
2023-05-10T03:38:41.153Z,4.00
2023-05-10T03:39:41.152Z,3.10
2023-05-10T03:40:41.119Z,2.00
2023-05-10T03:41:41.125Z,1.90
2023-05-10T03:42:41.131Z,1.80
2023-05-10T03:43:41.110Z,1.70
2023-05-10T03:44:41.109Z,1.60
2023-05-10T03:45:41.129Z,1.60
2023-05-10T03:46:41.150Z,1.70
2023-05-10T03:47:41.107Z,1.60
2023-05-10T03:48:41.070Z,1.70
2023-05-10T03:49:41.070Z,1.50
2023-05-10T03:50:41.076Z,1.60
2023-05-10T03:51:41.076Z,1.50
2023-05-10T03:52:41.036Z,1.50
2023-05-10T03:53:41.053Z,1.60
2023-05-10T03:54:41.031Z,1.50
2023-05-10T03:55:41.042Z,1.50
2023-05-10T03:56:40.992Z,1.40
2023-05-10T03:57:41.050Z,1.70
2023-05-10T03:58:40.987Z,2.00
2023-05-10T03:59:41.021Z,1.80
2023-05-10T04:00:40.982Z,1.70
2023-05-10T04:01:40.987Z,1.60
2023-05-10T04:02:41.517Z,1.60
2023-05-10T04:03:40.979Z,1.40
2023-05-10T04:04:40.929Z,1.40
2023-05-10T04:05:40.934Z,1.60
2023-05-10T04:06:40.982Z,1.60
2023-05-10T04:07:40.921Z,1.70
2023-05-10T04:08:40.896Z,1.60
2023-05-10T04:09:40.903Z,1.70
2023-05-10T04:10:40.904Z,1.80
2023-05-10T04:11:40.940Z,1.90
2023-05-10T04:12:40.879Z,2.00
2023-05-10T04:13:40.872Z,2.30
2023-05-10T04:14:40.869Z,2.40
2023-05-10T04:15:40.862Z,2.90
2023-05-10T04:16:40.852Z,3.50
2023-05-10T04:17:40.891Z,4.10
2023-05-10T04:18:40.807Z,4.10
2023-05-10T04:19:40.829Z,4.30
2023-05-10T04:20:40.794Z,4.20
2023-05-10T04:21:40.805Z,4.70
2023-05-10T04:22:40.790Z,4.70
2023-05-10T04:23:40.853Z,4.50
2023-05-10T04:24:40.774Z,4.60
2023-05-10T04:25:40.777Z,4.90
2023-05-10T04:26:40.741Z,5.20
2023-05-10T04:27:40.776Z,4.80
2023-05-10T04:28:40.741Z,4.90
2023-05-10T04:29:40.761Z,4.30
2023-05-10T04:30:40.726Z,4.50
2023-05-10T04:31:40.714Z,4.70
2023-05-10T04:32:40.773Z,4.70
2023-05-10T04:33:40.708Z,4.60
2023-05-10T04:34:40.672Z,4.40
2023-05-10T04:35:40.700Z,4.50
2023-05-10T04:36:40.682Z,4.80
2023-05-10T04:37:40.719Z,4.70
2023-05-10T04:38:40.637Z,4.80
2023-05-10T04:39:42.331Z,4.80
2023-05-10T04:40:40.611Z,5.20
2023-05-10T04:41:40.632Z,4.90
2023-05-10T04:42:40.626Z,4.80
2023-05-10T04:43:40.614Z,5.00
2023-05-10T04:44:40.596Z,5.20
2023-05-10T04:45:40.608Z,5.00
2023-05-10T04:46:40.738Z,5.10
2023-05-10T04:47:40.611Z,4.50
2023-05-10T04:48:40.554Z,5.30
2023-05-10T04:49:40.554Z,4.70
2023-05-10T04:50:40.558Z,5.00
2023-05-10T04:51:40.603Z,4.90
2023-05-10T04:52:40.519Z,5.50
2023-05-10T04:53:41.783Z,5.40
2023-05-10T04:54:40.506Z,5.40
2023-05-10T04:55:40.512Z,4.90
2023-05-10T04:56:40.474Z,5.40
2023-05-10T04:57:40.520Z,4.90
2023-05-10T04:58:40.471Z,4.80
2023-05-10T04:59:40.469Z,5.00
2023-05-10T05:00:40.448Z,5.00
2023-05-10T05:01:40.488Z,5.30
2023-05-10T05:02:40.637Z,5.10
2023-05-10T05:03:40.546Z,5.00
2023-05-10T05:04:40.419Z,4.90
2023-05-10T05:05:40.441Z,4.60
2023-05-10T05:06:40.405Z,4.70
2023-05-10T05:07:40.420Z,4.40
2023-05-10T05:08:40.385Z,4.60
2023-05-10T05:09:40.388Z,4.20
2023-05-10T05:10:40.404Z,4.50
2023-05-10T05:11:40.371Z,3.70
2023-05-10T05:12:40.359Z,3.50
2023-05-10T05:13:40.396Z,4.50
2023-05-10T05:14:40.345Z,3.80
2023-05-10T05:15:40.357Z,3.80
2023-05-10T05:16:40.451Z,4.20
2023-05-10T05:17:40.362Z,4.40
2023-05-10T05:18:40.302Z,4.50
2023-05-10T05:19:40.339Z,4.50
2023-05-10T05:20:40.289Z,5.10
2023-05-10T05:21:40.307Z,6.30
2023-05-10T05:22:40.299Z,7.00
2023-05-10T05:23:40.278Z,7.00
2023-05-10T05:24:40.281Z,6.80
2023-05-10T05:25:40.266Z,6.70
2023-05-10T05:26:40.227Z,6.90
2023-05-10T05:27:40.254Z,5.90
2023-05-10T05:28:40.252Z,5.90
2023-05-10T05:29:40.242Z,6.60
2023-05-10T05:30:40.214Z,6.40
2023-05-10T05:31:40.259Z,5.70
2023-05-10T05:32:40.202Z,5.50
2023-05-10T05:33:40.180Z,6.40
2023-05-10T05:34:40.191Z,6.70
2023-05-10T05:35:40.181Z,6.50
2023-05-10T05:36:40.192Z,6.60
2023-05-10T05:37:40.143Z,7.00
2023-05-10T05:38:40.141Z,6.10
2023-05-10T05:39:40.128Z,6.20
2023-05-10T05:40:40.123Z,3.20
2023-05-10T05:41:40.114Z,2.70
2023-05-10T05:42:40.093Z,3.60
2023-05-10T05:43:40.095Z,2.40
2023-05-10T05:44:40.070Z,2.00
2023-05-10T05:45:40.124Z,2.70
2023-05-10T05:46:40.057Z,2.70
2023-05-10T05:47:40.087Z,3.30
2023-05-10T05:48:40.024Z,4.00
2023-05-10T05:49:40.052Z,4.30
2023-05-10T05:50:40.027Z,3.90
2023-05-10T05:51:40.067Z,4.00
2023-05-10T05:52:40.000Z,4.20
2023-05-10T05:53:40.001Z,4.10
2023-05-10T05:54:40.012Z,4.00
2023-05-10T05:55:39.985Z,3.40
2023-05-10T05:56:39.969Z,3.50
2023-05-10T05:57:40.008Z,3.40
2023-05-10T05:58:39.986Z,3.50
2023-05-10T05:59:39.973Z,3.10
2023-05-10T06:00:39.935Z,3.00
2023-05-10T06:01:39.959Z,3.40
2023-05-10T06:02:40.070Z,3.20
2023-05-10T06:03:40.014Z,3.10
2023-05-10T06:04:40.156Z,2.70
2023-05-10T06:05:39.910Z,2.80
2023-05-10T06:06:39.907Z,3.00
2023-05-10T06:07:39.893Z,3.00
2023-05-10T06:08:39.867Z,3.30
2023-05-10T06:09:39.882Z,2.90
2023-05-10T06:10:39.880Z,3.00
2023-05-10T06:11:39.856Z,2.90
2023-05-10T06:12:39.875Z,2.60
2023-05-10T06:13:39.843Z,2.10
2023-05-10T06:14:39.811Z,2.20
2023-05-10T06:15:39.827Z,1.90
2023-05-10T06:16:39.818Z,1.60
2023-05-10T06:17:39.922Z,1.40
2023-05-10T06:18:39.815Z,1.60
2023-05-10T06:19:39.833Z,1.20
2023-05-10T06:20:39.767Z,1.20
2023-05-10T06:21:39.778Z,1.40
2023-05-10T06:22:39.766Z,1.10
2023-05-10T06:23:39.757Z,1.10
2023-05-10T06:24:39.765Z,1.20
2023-05-10T06:25:39.791Z,1.20
2023-05-10T06:26:39.721Z,1.40
2023-05-10T06:27:39.740Z,1.20
2023-05-10T06:28:39.711Z,1.20
2023-05-10T06:29:39.711Z,1.40
2023-05-10T06:30:39.705Z,1.20
2023-05-10T06:31:39.751Z,1.40
2023-05-10T06:32:39.703Z,1.00
2023-05-10T06:33:39.669Z,1.30
2023-05-10T06:34:39.672Z,1.30
2023-05-10T06:35:39.662Z,1.40
2023-05-10T06:36:39.658Z,1.40
2023-05-10T06:37:39.648Z,1.20
2023-05-10T06:38:39.626Z,1.50
2023-05-10T06:39:39.616Z,1.40
2023-05-10T06:40:39.610Z,1.40
2023-05-10T06:41:39.613Z,1.30
2023-05-10T06:42:39.578Z,1.40
2023-05-10T06:43:39.605Z,1.70
2023-05-10T06:44:39.567Z,1.50
2023-05-10T06:45:39.609Z,1.60
2023-05-10T06:46:39.630Z,1.50
2023-05-10T06:47:39.727Z,1.30
2023-05-10T06:48:39.536Z,1.30
2023-05-10T06:49:39.530Z,1.70
2023-05-10T06:50:39.536Z,1.20
2023-05-10T06:51:39.543Z,1.50
2023-05-10T06:52:39.518Z,1.30
2023-05-10T06:53:39.531Z,1.30
2023-05-10T06:54:39.479Z,1.40
2023-05-10T06:55:39.492Z,1.50
2023-05-10T06:56:39.456Z,1.30
2023-05-10T06:57:39.501Z,1.50
2023-05-10T06:58:46.508Z,1.30
2023-05-10T06:59:39.524Z,1.50
2023-05-10T07:00:39.501Z,1.40
2023-05-10T07:01:39.492Z,1.50
2023-05-10T07:02:39.479Z,1.40
2023-05-10T07:03:39.471Z,1.20
2023-05-10T07:04:39.769Z,1.40
2023-05-10T07:05:39.628Z,1.30
2023-05-10T07:06:39.417Z,1.30
2023-05-10T07:07:39.413Z,1.30
2023-05-10T07:08:39.380Z,1.50
2023-05-10T07:09:39.381Z,1.40
2023-05-10T07:10:39.345Z,1.50
2023-05-10T07:11:39.351Z,1.40
2023-05-10T07:12:39.469Z,1.40
2023-05-10T07:13:39.408Z,1.40
2023-05-10T07:14:39.317Z,1.50
2023-05-10T07:15:39.338Z,1.50
2023-05-10T07:16:39.312Z,1.50
2023-05-10T07:17:39.336Z,1.50
2023-05-10T07:18:39.299Z,1.50
2023-05-10T07:19:39.283Z,1.50
2023-05-10T07:20:39.262Z,1.40
2023-05-10T07:21:39.313Z,1.50
2023-05-10T07:22:39.245Z,1.60
2023-05-10T07:23:39.278Z,1.40
2023-05-10T07:24:39.227Z,1.80
2023-05-10T07:25:39.252Z,1.70
2023-05-10T07:26:39.235Z,1.40
2023-05-10T07:27:39.220Z,1.50
2023-05-10T07:28:39.200Z,1.60
2023-05-10T07:29:39.230Z,1.50
2023-05-10T07:30:39.211Z,1.50
2023-05-10T07:31:39.210Z,1.40
2023-05-10T07:32:39.237Z,1.40
2023-05-10T07:33:39.166Z,1.80
2023-05-10T07:34:39.142Z,1.60
2023-05-10T07:35:39.192Z,1.70
2023-05-10T07:36:39.123Z,1.60
2023-05-10T07:37:39.151Z,1.60
2023-05-10T07:38:40.975Z,1.70
2023-05-10T07:39:39.122Z,1.70
2023-05-10T07:40:39.091Z,1.50
2023-05-10T07:41:39.118Z,1.80
2023-05-10T07:42:39.085Z,1.60
2023-05-10T07:43:39.117Z,1.50
2023-05-10T07:44:39.068Z,1.80
2023-05-10T07:45:39.116Z,1.80
2023-05-10T07:46:39.037Z,1.80
2023-05-10T07:47:39.081Z,1.70
2023-05-10T07:48:39.022Z,1.90
2023-05-10T07:49:39.061Z,1.70
2023-05-10T07:50:39.005Z,1.90
2023-05-10T07:51:39.017Z,1.90
2023-05-10T07:52:38.996Z,1.90
2023-05-10T07:53:39.005Z,2.10
2023-05-10T07:54:39.015Z,1.90
2023-05-10T07:55:38.999Z,1.90
2023-05-10T07:56:38.975Z,1.90
2023-05-10T07:57:38.963Z,2.00
2023-05-10T07:58:38.943Z,1.80
2023-05-10T07:59:38.966Z,1.90
2023-05-10T08:00:38.933Z,1.80
2023-05-10T08:01:38.939Z,1.90
2023-05-10T08:02:39.105Z,2.00
2023-05-10T08:03:39.046Z,1.80
2023-05-10T08:04:38.979Z,1.90
2023-05-10T08:05:38.936Z,2.10
2023-05-10T08:06:38.894Z,1.90
2023-05-10T08:07:38.886Z,2.00
2023-05-10T08:08:38.876Z,1.80
2023-05-10T08:09:38.878Z,1.80
2023-05-10T08:10:38.866Z,1.90
2023-05-10T08:11:38.857Z,2.00
2023-05-10T08:12:38.831Z,2.20
2023-05-10T08:13:38.871Z,2.20
2023-05-10T08:14:38.858Z,2.20
2023-05-10T08:15:38.874Z,2.20
2023-05-10T08:16:38.823Z,2.30
2023-05-10T08:17:38.893Z,2.20
2023-05-10T08:18:38.803Z,2.30
2023-05-10T08:19:38.801Z,2.10
2023-05-10T08:20:38.773Z,2.30
2023-05-10T08:21:38.785Z,2.10
2023-05-10T08:22:38.766Z,2.30
2023-05-10T08:23:38.772Z,2.10
2023-05-10T08:24:38.809Z,2.30
2023-05-10T08:25:38.746Z,2.40
2023-05-10T08:26:38.738Z,2.10
2023-05-10T08:27:38.731Z,2.30
2023-05-10T08:28:38.740Z,2.70
2023-05-10T08:29:48.859Z,2.50
2023-05-10T08:30:39.705Z,2.40
2023-05-10T08:31:38.808Z,2.90
2023-05-10T08:32:38.689Z,3.00
2023-05-10T08:33:38.711Z,2.60
2023-05-10T08:34:38.657Z,2.90
2023-05-10T08:35:38.666Z,3.50
2023-05-10T08:36:38.684Z,3.00
2023-05-10T08:37:38.649Z,3.30
2023-05-10T08:38:38.656Z,3.20
2023-05-10T08:39:38.699Z,3.20
2023-05-10T08:40:38.608Z,3.70
2023-05-10T08:41:38.619Z,3.30
2023-05-10T08:42:38.603Z,3.70
2023-05-10T08:43:38.618Z,3.40
2023-05-10T08:44:38.570Z,3.20
2023-05-10T08:45:38.618Z,3.30
2023-05-10T08:46:38.661Z,3.00
2023-05-10T08:47:38.582Z,3.10
2023-05-10T08:48:38.544Z,3.70
2023-05-10T08:49:38.582Z,3.50
2023-05-10T08:50:38.533Z,3.40
2023-05-10T08:51:38.554Z,2.80
2023-05-10T08:52:38.516Z,2.80
2023-05-10T08:53:38.547Z,2.50
2023-05-10T08:54:38.521Z,2.60
2023-05-10T08:55:38.512Z,2.50
2023-05-10T08:56:38.662Z,2.70
2023-05-10T08:57:38.483Z,2.60
2023-05-10T08:58:38.464Z,2.70
2023-05-10T08:59:38.478Z,2.80
2023-05-10T09:00:38.516Z,3.00
2023-05-10T09:01:38.458Z,3.00
2023-05-10T09:02:38.482Z,3.10
2023-05-10T09:03:38.457Z,2.70
2023-05-10T09:04:38.439Z,2.60
2023-05-10T09:05:38.410Z,2.60
2023-05-10T09:06:38.448Z,2.70
2023-05-10T09:07:38.404Z,2.50
2023-05-10T09:08:38.377Z,2.60
2023-05-10T09:09:38.380Z,2.60
2023-05-10T09:10:38.356Z,1.80
2023-05-10T09:11:38.368Z,2.00
2023-05-10T09:12:38.368Z,2.20
2023-05-10T09:13:38.369Z,1.90
2023-05-10T09:14:38.331Z,1.90
2023-05-10T09:15:38.336Z,1.50
2023-05-10T09:16:38.388Z,1.60
2023-05-10T09:17:38.374Z,1.20
2023-05-10T09:18:38.365Z,1.40
2023-05-10T09:19:38.315Z,1.30
2023-05-10T09:20:38.273Z,1.40
2023-05-10T09:21:38.278Z,1.30
2023-05-10T09:22:38.261Z,1.20
2023-05-10T09:23:38.293Z,1.20
2023-05-10T09:24:38.256Z,1.30
2023-05-10T09:25:38.253Z,1.50
2023-05-10T09:26:38.258Z,1.30
2023-05-10T09:27:38.233Z,1.30
2023-05-10T09:28:38.218Z,1.30
2023-05-10T09:29:38.208Z,1.30
2023-05-10T09:30:38.230Z,1.70
2023-05-10T09:31:38.202Z,1.30
2023-05-10T09:32:38.186Z,1.30
2023-05-10T09:33:38.172Z,1.50
2023-05-10T09:34:38.158Z,1.40
2023-05-10T09:35:38.160Z,1.70
2023-05-10T09:36:38.202Z,1.50
2023-05-10T09:37:38.149Z,1.60
2023-05-10T09:38:38.130Z,1.40
2023-05-10T09:39:38.115Z,1.50
2023-05-10T09:40:38.123Z,1.60
2023-05-10T09:41:38.103Z,1.50
2023-05-10T09:42:38.101Z,1.30
2023-05-10T09:43:38.107Z,1.40
2023-05-10T09:44:38.070Z,1.30
2023-05-10T09:45:39.138Z,1.30
2023-05-10T09:46:38.097Z,1.30
2023-05-10T09:47:38.122Z,1.20
2023-05-10T09:48:38.040Z,1.10
2023-05-10T09:49:38.054Z,1.20
2023-05-10T09:50:38.033Z,1.20
2023-05-10T09:51:38.033Z,1.10
2023-05-10T09:52:38.052Z,1.30
2023-05-10T09:53:38.007Z,0.90
2023-05-10T09:54:38.029Z,1.20
2023-05-10T09:55:38.026Z,1.00
2023-05-10T09:56:37.998Z,1.00
2023-05-10T09:57:37.992Z,1.00
2023-05-10T09:58:37.995Z,0.80
2023-05-10T09:59:37.987Z,0.80
2023-05-10T10:00:37.941Z,0.90
2023-05-10T10:01:37.978Z,0.90
2023-05-10T10:02:38.065Z,0.80
2023-05-10T10:03:37.946Z,0.90
2023-05-10T10:04:37.985Z,0.70
2023-05-10T10:05:37.917Z,0.80
2023-05-10T10:06:37.908Z,0.70
2023-05-10T10:07:37.916Z,0.90
2023-05-10T10:08:37.879Z,0.80
2023-05-10T10:09:37.915Z,0.70
2023-05-10T10:10:37.868Z,0.90
2023-05-10T10:11:37.896Z,0.80
2023-05-10T10:12:37.887Z,1.00
2023-05-10T10:13:37.875Z,1.00
2023-05-10T10:14:37.855Z,1.10
2023-05-10T10:15:37.878Z,1.10
2023-05-10T10:16:45.826Z,1.10
2023-05-10T10:17:38.885Z,1.20
2023-05-10T10:18:37.877Z,1.30
2023-05-10T10:19:38.194Z,1.10
2023-05-10T10:20:37.826Z,1.20
2023-05-10T10:21:37.805Z,1.20
2023-05-10T10:22:37.798Z,1.10
2023-05-10T10:23:37.826Z,1.10
2023-05-10T10:24:37.810Z,1.00
2023-05-10T10:25:37.767Z,1.20
2023-05-10T10:26:38.580Z,1.30
2023-05-10T10:27:37.765Z,1.30
2023-05-10T10:28:37.766Z,1.20
2023-05-10T10:29:37.744Z,1.30
2023-05-10T10:30:37.726Z,1.20
2023-05-10T10:31:37.908Z,1.10
2023-05-10T10:32:37.729Z,1.00
2023-05-10T10:33:37.730Z,1.10
2023-05-10T10:34:37.691Z,1.10
2023-05-10T10:35:37.706Z,1.30
2023-05-10T10:36:37.702Z,1.10
2023-05-10T10:37:37.677Z,1.00
2023-05-10T10:38:38.114Z,1.00
2023-05-10T10:39:37.845Z,1.30
2023-05-10T10:40:37.652Z,1.20
2023-05-10T10:41:37.648Z,1.10
2023-05-10T10:42:37.611Z,1.10
2023-05-10T10:43:37.638Z,1.00
2023-05-10T10:44:37.647Z,1.10
2023-05-10T10:45:37.634Z,1.10
2023-05-10T10:46:37.657Z,1.30
2023-05-10T10:47:37.636Z,1.20
2023-05-10T10:48:37.586Z,1.20
2023-05-10T10:49:37.579Z,1.20
2023-05-10T10:50:37.554Z,1.20
2023-05-10T10:51:37.562Z,1.10
2023-05-10T10:52:37.631Z,1.10
2023-05-10T10:53:37.565Z,1.30
2023-05-10T10:54:37.556Z,1.40
2023-05-10T10:55:37.527Z,1.20
2023-05-10T10:56:37.590Z,1.10
2023-05-10T10:57:37.535Z,1.20
2023-05-10T10:58:37.533Z,1.20
2023-05-10T10:59:37.523Z,1.30
2023-05-10T11:00:37.640Z,1.10
2023-05-10T11:01:37.651Z,1.10
2023-05-10T11:02:37.587Z,1.00
2023-05-10T11:03:37.508Z,1.10
2023-05-10T11:04:37.563Z,1.40
2023-05-10T11:05:37.470Z,1.10
2023-05-10T11:06:37.454Z,1.10
2023-05-10T11:07:37.490Z,1.00
2023-05-10T11:08:38.355Z,1.00
2023-05-10T11:09:37.472Z,1.10
2023-05-10T11:10:37.428Z,1.00
2023-05-10T11:11:37.442Z,1.10
2023-05-10T11:12:37.400Z,0.90
2023-05-10T11:13:37.473Z,0.80
2023-05-10T11:14:37.403Z,0.90
2023-05-10T11:15:37.413Z,0.70
2023-05-10T11:16:37.399Z,1.10
2023-05-10T11:17:37.473Z,1.00
2023-05-10T11:18:37.393Z,1.00
2023-05-10T11:19:37.379Z,1.00
2023-05-10T11:20:37.362Z,1.00
2023-05-10T11:21:37.384Z,1.10
2023-05-10T11:22:37.339Z,1.70
2023-05-10T11:23:37.359Z,1.50
2023-05-10T11:24:37.328Z,1.40
2023-05-10T11:25:37.328Z,1.40
2023-05-10T11:26:37.311Z,1.30
2023-05-10T11:27:37.339Z,1.20
2023-05-10T11:28:37.310Z,1.30
2023-05-10T11:29:37.322Z,1.40
2023-05-10T11:30:37.300Z,1.00
2023-05-10T11:31:37.301Z,1.20
2023-05-10T11:32:37.290Z,1.30
2023-05-10T11:33:37.277Z,1.40
2023-05-10T11:34:37.280Z,1.30
2023-05-10T11:35:37.253Z,1.20
2023-05-10T11:36:37.442Z,0.80
2023-05-10T11:37:37.275Z,0.90
2023-05-10T11:38:37.252Z,0.80
2023-05-10T11:39:37.251Z,0.90
2023-05-10T11:40:37.220Z,0.70
2023-05-10T11:41:37.265Z,1.30
2023-05-10T11:42:37.204Z,0.90
2023-05-10T11:43:37.261Z,0.80
2023-05-10T11:44:37.186Z,0.90
2023-05-10T11:45:37.191Z,0.90
2023-05-10T11:46:37.234Z,0.80
2023-05-10T11:47:37.189Z,0.90
2023-05-10T11:48:37.169Z,0.80
2023-05-10T11:49:37.191Z,0.90
2023-05-10T11:50:37.161Z,1.00
2023-05-10T11:51:37.192Z,1.00
2023-05-10T11:52:37.153Z,1.00
2023-05-10T11:53:37.150Z,1.10
2023-05-10T11:54:37.196Z,0.90
2023-05-10T11:55:37.125Z,1.10
2023-05-10T11:56:37.134Z,1.20
2023-05-10T11:57:37.125Z,0.90
2023-05-10T11:58:37.128Z,1.00
2023-05-10T11:59:37.105Z,0.90
2023-05-10T12:00:37.104Z,1.00
2023-05-10T12:01:37.094Z,1.00
2023-05-10T12:02:37.128Z,1.00
2023-05-10T12:03:37.219Z,0.90
2023-05-10T12:04:37.053Z,0.90
2023-05-10T12:05:37.072Z,1.00
2023-05-10T12:06:37.085Z,1.00
2023-05-10T12:07:37.055Z,0.90
2023-05-10T12:08:37.017Z,0.90
2023-05-10T12:09:43.584Z,1.20
2023-05-10T12:10:38.013Z,1.10
2023-05-10T12:11:37.014Z,1.20
2023-05-10T12:12:37.037Z,1.10
2023-05-10T12:13:37.015Z,1.10
2023-05-10T12:14:36.988Z,1.20
2023-05-10T12:15:36.995Z,1.10
2023-05-10T12:16:37.006Z,1.30
2023-05-10T12:17:37.021Z,1.40
2023-05-10T12:18:36.968Z,1.40
2023-05-10T12:19:36.952Z,1.30
2023-05-10T12:20:36.966Z,1.60
2023-05-10T12:21:36.969Z,1.50
2023-05-10T12:22:36.931Z,1.10
2023-05-10T12:23:36.968Z,1.00
2023-05-10T12:24:36.924Z,1.10
2023-05-10T12:25:36.963Z,1.10
2023-05-10T12:26:36.909Z,1.30
2023-05-10T12:27:36.928Z,1.10
2023-05-10T12:28:36.904Z,1.40
2023-05-10T12:29:37.101Z,1.00
2023-05-10T12:30:36.882Z,1.20
2023-05-10T12:31:36.892Z,1.30
2023-05-10T12:32:36.887Z,1.20
2023-05-10T12:33:36.867Z,1.30
2023-05-10T12:34:36.852Z,1.50
2023-05-10T12:35:36.870Z,1.60
2023-05-10T12:36:36.840Z,1.30
2023-05-10T12:37:36.853Z,1.30
2023-05-10T12:38:36.826Z,1.50
2023-05-10T12:39:36.833Z,1.60
2023-05-10T12:40:36.845Z,1.30
2023-05-10T12:41:36.815Z,1.30
2023-05-10T12:42:36.896Z,1.30
2023-05-10T12:43:36.794Z,1.50
2023-05-10T12:44:36.769Z,1.30
2023-05-10T12:45:36.805Z,1.50
2023-05-10T12:46:36.784Z,1.40
2023-05-10T12:47:36.818Z,1.40
2023-05-10T12:48:36.750Z,1.30
2023-05-10T12:49:36.769Z,1.30
2023-05-10T12:50:36.728Z,1.30
2023-05-10T12:51:36.770Z,1.10
2023-05-10T12:52:36.722Z,1.20
2023-05-10T12:53:36.737Z,1.00
2023-05-10T12:54:36.726Z,1.10
2023-05-10T12:55:36.727Z,1.10
2023-05-10T12:56:36.686Z,1.00
2023-05-10T12:57:36.696Z,1.10
2023-05-10T12:58:36.669Z,0.90
2023-05-10T12:59:38.179Z,1.00
2023-05-10T13:00:36.657Z,1.10
2023-05-10T13:01:36.740Z,1.00
2023-05-10T13:02:36.709Z,0.80
2023-05-10T13:03:36.634Z,0.70
2023-05-10T13:04:36.667Z,0.90
2023-05-10T13:05:36.636Z,0.90
2023-05-10T13:06:36.615Z,1.00
2023-05-10T13:07:36.629Z,1.10
2023-05-10T13:08:36.639Z,1.30
2023-05-10T13:09:36.656Z,1.20
2023-05-10T13:10:36.588Z,1.40
2023-05-10T13:11:36.592Z,1.50
2023-05-10T13:12:36.562Z,1.50
2023-05-10T13:13:36.567Z,1.60
2023-05-10T13:14:36.571Z,1.70
2023-05-10T13:15:36.583Z,1.40
2023-05-10T13:16:36.567Z,1.50
2023-05-10T13:17:36.570Z,1.50
2023-05-10T13:18:36.571Z,1.50
2023-05-10T13:19:36.523Z,1.60